createdAt,value
2024-03-14T00:00:06.349Z,11.46
2024-03-14T00:02:33.004Z,11.45
2024-03-14T00:04:59.809Z,11.45
2024-03-14T00:07:27.252Z,11.46
2024-03-14T00:09:53.879Z,11.47
2024-03-14T00:12:20.499Z,11.47
2024-03-14T00:14:51.612Z,11.46
2024-03-14T00:17:24.176Z,11.46
2024-03-14T00:19:52.106Z,11.46
2024-03-14T00:22:18.983Z,11.46
2024-03-14T00:24:46.888Z,11.46
2024-03-14T00:27:14.910Z,11.46
2024-03-14T00:29:43.258Z,11.46
2024-03-14T00:32:10.262Z,11.46
2024-03-14T00:34:37.555Z,11.45
2024-03-14T00:37:04.527Z,11.43
2024-03-14T00:39:33.266Z,11.42
2024-03-14T00:42:00.243Z,11.41
2024-03-14T00:44:26.977Z,11.39
2024-03-14T00:46:53.547Z,11.39
2024-03-14T00:49:20.271Z,11.38
2024-03-14T00:51:47.343Z,11.37
2024-03-14T00:54:14.221Z,11.36
2024-03-14T00:56:42.499Z,11.35
2024-03-14T00:59:10.689Z,11.34
2024-03-14T01:01:37.538Z,11.33
2024-03-14T01:04:05.450Z,11.33
2024-03-14T01:06:32.887Z,11.33
2024-03-14T01:09:01.032Z,11.32
2024-03-14T01:11:29.064Z,11.32
2024-03-14T01:13:56.157Z,11.31
2024-03-14T01:16:22.661Z,11.30
2024-03-14T01:18:51.513Z,11.28
2024-03-14T01:21:18.389Z,11.28
2024-03-14T01:23:45.335Z,11.27
2024-03-14T01:26:12.391Z,11.26
2024-03-14T01:28:38.981Z,11.24
2024-03-14T01:31:06.721Z,11.21
2024-03-14T01:33:33.838Z,11.19
2024-03-14T01:36:02.247Z,11.17
2024-03-14T01:38:29.083Z,11.14
2024-03-14T01:40:55.788Z,11.12
2024-03-14T01:43:23.440Z,11.10
2024-03-14T01:45:50.530Z,11.07
2024-03-14T01:48:17.249Z,11.04
2024-03-14T01:50:43.962Z,11.00
2024-03-14T01:53:11.381Z,10.99
2024-03-14T01:55:39.291Z,10.95
2024-03-14T01:58:08.956Z,10.91
2024-03-14T02:00:44.907Z,10.86
2024-03-14T02:03:14.652Z,10.84
2024-03-14T02:05:53.073Z,10.81
2024-03-14T02:08:21.384Z,10.79
2024-03-14T02:10:48.086Z,10.76
2024-03-14T02:13:15.333Z,10.74
2024-03-14T02:15:41.956Z,10.71
2024-03-14T02:18:10.119Z,10.68
2024-03-14T02:20:38.343Z,10.66
2024-03-14T02:23:05.987Z,10.63
2024-03-14T02:25:32.890Z,10.61
2024-03-14T02:27:59.403Z,10.59
2024-03-14T02:30:26.177Z,10.56
2024-03-14T02:32:53.258Z,10.54
2024-03-14T02:35:20.112Z,10.52
2024-03-14T02:37:47.758Z,10.50
2024-03-14T02:40:14.329Z,10.48
2024-03-14T02:42:41.025Z,10.47
2024-03-14T02:45:08.602Z,10.47
2024-03-14T02:47:38.609Z,10.45
2024-03-14T02:50:07.933Z,10.42
2024-03-14T02:52:34.793Z,10.39
2024-03-14T02:55:02.971Z,10.38
2024-03-14T02:57:30.471Z,10.36
2024-03-14T02:59:57.289Z,10.36
2024-03-14T03:02:26.658Z,10.35
2024-03-14T03:04:53.168Z,10.34
2024-03-14T03:07:19.765Z,10.33
2024-03-14T03:09:47.508Z,10.32
2024-03-14T03:12:14.259Z,10.32
2024-03-14T03:14:40.921Z,10.30
2024-03-14T03:17:08.216Z,10.28
2024-03-14T03:19:37.477Z,10.26
2024-03-14T03:22:06.894Z,10.25
2024-03-14T03:24:33.699Z,10.23
2024-03-14T03:27:04.476Z,10.22
2024-03-14T03:29:31.329Z,10.21
2024-03-14T03:31:57.859Z,10.21
2024-03-14T03:34:25.042Z,10.20
2024-03-14T03:36:52.061Z,10.19
2024-03-14T03:39:19.687Z,10.19
2024-03-14T03:41:47.712Z,10.19
2024-03-14T03:44:14.603Z,10.19
2024-03-14T03:46:45.648Z,10.18
2024-03-14T03:49:12.517Z,10.16
2024-03-14T03:51:39.091Z,10.16
2024-03-14T03:54:06.298Z,10.15
2024-03-14T03:56:33.149Z,10.14
2024-03-14T03:58:59.704Z,10.13
2024-03-14T04:01:28.522Z,10.11
2024-03-14T04:03:55.746Z,10.11
2024-03-14T04:06:22.873Z,10.11
2024-03-14T04:08:49.870Z,10.11
2024-03-14T04:11:17.500Z,10.11
2024-03-14T04:13:44.736Z,10.12
2024-03-14T04:16:14.271Z,10.14
2024-03-14T04:18:41.146Z,10.14
2024-03-14T04:21:14.700Z,10.15
2024-03-14T04:23:42.048Z,10.15
2024-03-14T04:26:10.740Z,10.14
2024-03-14T04:28:39.249Z,10.11
2024-03-14T04:31:05.875Z,10.09
2024-03-14T04:33:35.398Z,10.08
2024-03-14T04:36:04.808Z,10.06
2024-03-14T04:38:33.464Z,10.03
2024-03-14T04:41:01.232Z,10.01
2024-03-14T04:43:28.480Z,9.98
2024-03-14T04:45:55.648Z,9.97
2024-03-14T04:48:22.307Z,9.97
2024-03-14T04:50:50.440Z,9.97
2024-03-14T04:53:17.632Z,9.97
2024-03-14T04:55:47.296Z,9.96
2024-03-14T04:58:17.328Z,9.94
2024-03-14T05:00:47.441Z,9.93
2024-03-14T05:03:14.965Z,9.92
2024-03-14T05:05:42.099Z,9.91
2024-03-14T05:08:08.707Z,9.89
2024-03-14T05:10:35.709Z,9.87
2024-03-14T05:13:02.639Z,9.86
2024-03-14T05:15:29.994Z,9.85
2024-03-14T05:18:03.135Z,9.84
2024-03-14T05:20:30.595Z,9.84
2024-03-14T05:22:57.702Z,9.83
2024-03-14T05:25:25.094Z,9.82
2024-03-14T05:27:52.332Z,9.79
2024-03-14T05:30:19.925Z,9.76
2024-03-14T05:32:46.659Z,9.74
2024-03-14T05:35:14.102Z,9.73
2024-03-14T05:37:42.823Z,9.71
2024-03-14T05:40:12.134Z,9.68
2024-03-14T05:42:40.577Z,9.65
2024-03-14T05:45:10.491Z,9.63
2024-03-14T05:47:41.077Z,9.62
2024-03-14T05:50:10.842Z,9.61
2024-03-14T05:52:37.557Z,9.61
2024-03-14T05:55:04.875Z,9.59
2024-03-14T05:57:32.111Z,9.58
2024-03-14T06:00:02.187Z,9.58
2024-03-14T06:02:28.950Z,9.57
2024-03-14T06:04:55.900Z,9.57
2024-03-14T06:07:23.276Z,9.57
2024-03-14T06:09:51.739Z,9.58
2024-03-14T06:12:18.807Z,9.60
2024-03-14T06:14:46.872Z,9.60
2024-03-14T06:17:14.325Z,9.61
2024-03-14T06:19:41.107Z,9.64
2024-03-14T06:22:07.884Z,9.69
2024-03-14T06:24:35.039Z,9.75
2024-03-14T06:27:01.930Z,9.80
2024-03-14T06:29:28.658Z,9.84
2024-03-14T06:31:55.269Z,9.88
2024-03-14T06:34:21.776Z,9.91
2024-03-14T06:36:48.346Z,9.96
2024-03-14T06:39:18.399Z,10.00
2024-03-14T06:41:45.178Z,10.06
2024-03-14T06:44:13.159Z,10.12
2024-03-14T06:46:41.062Z,10.17
2024-03-14T06:49:13.814Z,10.21
2024-03-14T06:51:43.531Z,10.26
2024-03-14T06:54:15.841Z,10.31
2024-03-14T06:56:42.384Z,10.36
2024-03-14T06:59:14.445Z,10.40
2024-03-14T07:01:41.608Z,10.44
2024-03-14T07:04:09.720Z,10.47
2024-03-14T07:06:36.850Z,10.50
2024-03-14T07:09:05.180Z,10.53
2024-03-14T07:11:32.462Z,10.56
2024-03-14T07:14:01.152Z,10.60
2024-03-14T07:16:27.935Z,10.62
2024-03-14T07:18:57.630Z,10.65
2024-03-14T07:21:24.308Z,10.67
2024-03-14T07:23:51.329Z,10.68
2024-03-14T07:26:24.566Z,10.69
2024-03-14T07:28:55.331Z,10.70
2024-03-14T07:31:22.661Z,10.72
2024-03-14T07:33:50.509Z,10.74
2024-03-14T07:36:17.613Z,10.76
2024-03-14T07:38:45.757Z,10.77
2024-03-14T07:41:15.438Z,10.76
2024-03-14T07:43:41.931Z,10.77
2024-03-14T07:46:09.544Z,10.79
2024-03-14T07:48:39.000Z,10.82
2024-03-14T07:51:08.867Z,10.83
2024-03-14T07:53:36.054Z,10.84
2024-03-14T07:56:03.218Z,10.86
2024-03-14T07:58:29.846Z,10.90
2024-03-14T08:00:57.147Z,10.94
2024-03-14T08:03:24.217Z,10.97
2024-03-14T08:05:51.752Z,11.00
2024-03-14T08:08:25.636Z,11.05
2024-03-14T08:10:54.298Z,11.12
2024-03-14T08:13:25.307Z,11.18
2024-03-14T08:15:55.424Z,11.26
2024-03-14T08:18:23.599Z,11.38
2024-03-14T08:20:51.523Z,11.51
2024-03-14T08:23:18.081Z,11.67
2024-03-14T08:25:44.963Z,11.81
2024-03-14T08:28:13.114Z,11.92
2024-03-14T08:30:41.079Z,12.02
2024-03-14T08:33:10.753Z,12.11
2024-03-14T08:35:43.502Z,12.20
2024-03-14T08:38:10.799Z,12.31
2024-03-14T08:40:37.738Z,12.40
2024-03-14T08:43:04.595Z,12.49
2024-03-14T08:45:36.606Z,12.57
2024-03-14T08:48:09.180Z,12.67
2024-03-14T08:50:36.904Z,12.77
2024-03-14T08:53:04.116Z,12.88
2024-03-14T08:55:34.813Z,12.99
2024-03-14T08:58:04.466Z,13.10
2024-03-14T09:00:31.747Z,13.18
2024-03-14T09:03:01.210Z,13.27
2024-03-14T09:05:29.092Z,13.37
2024-03-14T09:07:57.599Z,13.48
2024-03-14T09:10:27.269Z,13.59
2024-03-14T09:12:55.785Z,13.70
2024-03-14T09:15:23.340Z,13.82
2024-03-14T09:17:51.725Z,13.97
2024-03-14T09:20:21.328Z,14.12
2024-03-14T09:22:55.447Z,14.19
2024-03-14T09:25:23.653Z,14.28
2024-03-14T09:27:52.706Z,14.37
2024-03-14T09:30:20.397Z,14.50
2024-03-14T09:32:47.321Z,14.77
2024-03-14T09:35:26.595Z,15.05
2024-03-14T09:37:56.263Z,15.46
2024-03-14T09:40:24.661Z,15.89
2024-03-14T09:43:01.104Z,16.22
2024-03-14T09:45:30.322Z,16.35
2024-03-14T09:47:58.693Z,16.33
2024-03-14T09:50:28.190Z,16.25
2024-03-14T09:52:56.522Z,16.21
2024-03-14T09:55:25.298Z,16.15
2024-03-14T09:57:54.189Z,16.06
2024-03-14T10:00:21.592Z,16.01
2024-03-14T10:02:49.603Z,15.94
2024-03-14T10:05:20.544Z,15.83
2024-03-14T10:07:48.752Z,15.95
2024-03-14T10:10:17.111Z,16.00
2024-03-14T10:12:55.527Z,15.96
2024-03-14T10:15:23.647Z,16.00
2024-03-14T10:17:54.015Z,16.09
2024-03-14T10:20:21.765Z,16.25
2024-03-14T10:22:50.038Z,16.52
2024-03-14T10:25:19.208Z,17.09
2024-03-14T10:28:05.620Z,17.86
2024-03-14T10:30:38.807Z,18.55
2024-03-14T10:33:11.380Z,18.89
2024-03-14T10:35:40.379Z,19.82
2024-03-14T10:38:12.840Z,20.56
2024-03-14T10:40:43.359Z,21.37
2024-03-14T10:43:15.507Z,22.50
2024-03-14T10:45:43.814Z,23.26
2024-03-14T10:48:11.976Z,23.88
2024-03-14T10:50:39.137Z,24.10
2024-03-14T10:53:06.994Z,24.94
2024-03-14T10:55:34.894Z,26.43
2024-03-14T10:58:05.472Z,27.23
2024-03-14T11:00:35.891Z,26.88
2024-03-14T11:03:05.129Z,26.25
2024-03-14T11:05:33.390Z,25.76
2024-03-14T11:08:04.722Z,25.42
2024-03-14T11:10:35.445Z,25.68
2024-03-14T11:13:18.480Z,26.75
2024-03-14T11:15:45.725Z,28.24
2024-03-14T11:18:15.606Z,29.75
2024-03-14T11:20:48.010Z,31.30
2024-03-14T11:23:19.543Z,32.85
2024-03-14T11:25:50.689Z,33.01
2024-03-14T11:28:17.944Z,31.92
2024-03-14T11:30:57.376Z,31.20
2024-03-14T11:33:28.621Z,31.55
2024-03-14T11:35:59.435Z,32.30
2024-03-14T11:38:31.274Z,33.00
2024-03-14T11:41:07.619Z,33.01
2024-03-14T11:43:35.386Z,31.59
2024-03-14T11:46:10.161Z,30.91
2024-03-14T11:48:40.088Z,31.06
2024-03-14T11:51:12.470Z,30.08
2024-03-14T11:53:40.908Z,28.52
2024-03-14T11:56:11.692Z,27.49
2024-03-14T11:58:42.531Z,27.21
2024-03-14T12:01:15.560Z,27.66
2024-03-14T12:03:45.670Z,28.56
2024-03-14T12:06:17.545Z,29.53
2024-03-14T12:08:44.329Z,30.27
2024-03-14T12:11:10.890Z,31.15
2024-03-14T12:13:37.708Z,32.54
2024-03-14T12:16:05.757Z,33.81
2024-03-14T12:18:34.105Z,35.09
2024-03-14T12:21:02.002Z,35.27
2024-03-14T12:23:30.308Z,34.85
2024-03-14T12:26:03.977Z,34.40
2024-03-14T12:28:33.231Z,33.42
2024-03-14T12:31:03.029Z,32.40
2024-03-14T12:33:32.470Z,31.20
2024-03-14T12:36:02.093Z,30.63
2024-03-14T12:38:29.771Z,31.30
2024-03-14T12:41:00.804Z,32.27
2024-03-14T12:43:29.021Z,33.53
2024-03-14T12:45:56.138Z,34.69
2024-03-14T12:48:23.847Z,35.20
2024-03-14T12:50:54.973Z,35.50
2024-03-14T12:53:25.543Z,35.81
2024-03-14T12:55:54.005Z,36.05
2024-03-14T12:58:24.232Z,36.39
2024-03-14T13:00:55.681Z,36.78
2024-03-14T13:03:25.461Z,37.27
2024-03-14T13:05:57.486Z,37.68
2024-03-14T13:08:29.337Z,37.21
2024-03-14T13:11:17.430Z,36.13
2024-03-14T13:13:44.224Z,34.68
2024-03-14T13:16:30.695Z,33.55
2024-03-14T13:18:57.511Z,32.63
2024-03-14T13:21:27.044Z,32.04
2024-03-14T13:23:57.085Z,31.94
2024-03-14T13:26:24.953Z,32.27
2024-03-14T13:28:55.165Z,32.22
2024-03-14T13:31:27.212Z,31.75
2024-03-14T13:33:55.597Z,31.34
2024-03-14T13:36:22.510Z,31.08
2024-03-14T13:38:49.238Z,31.52
2024-03-14T13:41:16.032Z,32.18
2024-03-14T13:43:42.599Z,32.33
2024-03-14T13:46:09.770Z,32.02
2024-03-14T13:48:37.644Z,31.21
2024-03-14T13:51:08.374Z,30.51
2024-03-14T13:53:35.064Z,30.01
2024-03-14T13:56:02.126Z,29.56
2024-03-14T13:58:29.268Z,29.10
2024-03-14T14:00:57.920Z,28.75
2024-03-14T14:03:25.209Z,28.30
2024-03-14T14:06:05.105Z,27.88
2024-03-14T14:08:32.141Z,28.03
2024-03-14T14:10:58.807Z,28.35
2024-03-14T14:13:26.537Z,28.44
2024-03-14T14:15:53.779Z,28.58
2024-03-14T14:18:20.621Z,28.96
2024-03-14T14:20:47.308Z,29.60
2024-03-14T14:23:14.125Z,29.72
2024-03-14T14:25:40.751Z,29.20
2024-03-14T14:28:10.616Z,29.32
2024-03-14T14:30:37.878Z,30.05
2024-03-14T14:33:05.232Z,30.28
2024-03-14T14:35:32.204Z,30.28
2024-03-14T14:37:59.197Z,30.01
2024-03-14T14:40:25.934Z,29.44
2024-03-14T14:42:55.293Z,28.77
2024-03-14T14:45:22.475Z,28.09
2024-03-14T14:47:49.085Z,27.52
2024-03-14T14:50:15.753Z,27.27
2024-03-14T14:52:42.562Z,27.09
2024-03-14T14:55:13.423Z,26.85
2024-03-14T14:57:44.328Z,26.72
2024-03-14T15:00:15.191Z,26.54
2024-03-14T15:02:48.254Z,26.34
2024-03-14T15:05:15.257Z,26.36
2024-03-14T15:07:45.275Z,26.47
2024-03-14T15:10:13.600Z,26.49
2024-03-14T15:12:49.698Z,26.33
2024-03-14T15:15:23.798Z,26.08
2024-03-14T15:17:52.708Z,25.78
2024-03-14T15:20:23.215Z,25.37
2024-03-14T15:22:53.244Z,25.15
2024-03-14T15:25:21.277Z,25.20
2024-03-14T15:27:48.251Z,25.35
2024-03-14T15:30:17.082Z,25.45
2024-03-14T15:32:44.953Z,25.48
2024-03-14T15:35:16.951Z,25.62
2024-03-14T15:37:45.319Z,26.14
2024-03-14T15:40:15.162Z,26.44
2024-03-14T15:42:42.970Z,26.03
2024-03-14T15:45:17.304Z,25.51
2024-03-14T15:47:46.848Z,25.04
2024-03-14T15:50:14.750Z,24.71
2024-03-14T15:52:41.558Z,24.40
2024-03-14T15:55:09.676Z,24.13
2024-03-14T15:57:36.537Z,23.90
2024-03-14T16:00:03.719Z,23.66
2024-03-14T16:02:30.725Z,23.38
2024-03-14T16:04:57.326Z,23.09
2024-03-14T16:07:23.879Z,22.76
2024-03-14T16:09:50.431Z,22.40
2024-03-14T16:12:19.895Z,22.00
2024-03-14T16:14:48.256Z,21.63
2024-03-14T16:17:16.681Z,21.35
2024-03-14T16:19:44.240Z,21.20
2024-03-14T16:22:11.226Z,21.09
2024-03-14T16:24:38.720Z,21.00
2024-03-14T16:27:06.369Z,20.96
2024-03-14T16:29:33.131Z,20.93
2024-03-14T16:32:02.707Z,20.87
2024-03-14T16:34:32.597Z,20.67
2024-03-14T16:37:00.432Z,20.48
2024-03-14T16:39:27.574Z,20.28
2024-03-14T16:41:54.473Z,20.10
2024-03-14T16:44:21.180Z,19.91
2024-03-14T16:46:47.722Z,19.72
2024-03-14T16:49:14.263Z,19.55
2024-03-14T16:51:43.590Z,19.38
2024-03-14T16:54:14.211Z,19.23
2024-03-14T16:56:40.995Z,19.07
2024-03-14T16:59:08.557Z,18.92
2024-03-14T17:01:36.686Z,18.77
2024-03-14T17:04:04.133Z,18.63
2024-03-14T17:06:31.675Z,18.49
2024-03-14T17:08:58.681Z,18.36
2024-03-14T17:11:25.548Z,18.25
2024-03-14T17:13:53.694Z,18.13
2024-03-14T17:16:24.534Z,18.02
2024-03-14T17:18:52.451Z,17.93
2024-03-14T17:21:22.201Z,17.85
2024-03-14T17:23:49.376Z,17.75
2024-03-14T17:26:17.990Z,17.67
2024-03-14T17:28:44.912Z,17.58
2024-03-14T17:31:14.413Z,17.50
2024-03-14T17:33:43.748Z,17.42
2024-03-14T17:36:16.536Z,17.34
2024-03-14T17:38:44.586Z,17.26
2024-03-14T17:41:12.173Z,17.19
2024-03-14T17:43:39.637Z,17.12
2024-03-14T17:46:07.960Z,17.04
2024-03-14T17:48:35.412Z,16.97
2024-03-14T17:51:02.243Z,16.90
2024-03-14T17:53:29.465Z,16.82
2024-03-14T17:55:56.229Z,16.76
2024-03-14T17:58:22.832Z,16.70
2024-03-14T18:00:49.644Z,16.64
2024-03-14T18:03:18.165Z,16.60
2024-03-14T18:05:45.532Z,16.54
2024-03-14T18:08:13.396Z,16.48
2024-03-14T18:10:40.103Z,16.44
2024-03-14T18:13:07.308Z,16.40
2024-03-14T18:15:34.678Z,16.36
2024-03-14T18:18:01.742Z,16.32
2024-03-14T18:20:28.762Z,16.28
2024-03-14T18:22:56.531Z,16.24
2024-03-14T18:25:23.395Z,16.21
2024-03-14T18:27:52.429Z,16.18
2024-03-14T18:30:22.015Z,16.16
2024-03-14T18:32:50.884Z,16.13
2024-03-14T18:35:19.125Z,16.10
2024-03-14T18:37:47.099Z,16.07
2024-03-14T18:40:19.757Z,16.06
2024-03-14T18:42:48.393Z,16.03
2024-03-14T18:45:17.559Z,16.00
2024-03-14T18:47:45.214Z,15.96
2024-03-14T18:50:14.879Z,15.93
2024-03-14T18:52:42.463Z,15.91
2024-03-14T18:55:10.833Z,15.89
2024-03-14T18:57:38.419Z,15.88
2024-03-14T19:00:08.161Z,15.87
2024-03-14T19:02:35.245Z,15.83
2024-03-14T19:05:02.065Z,15.78
2024-03-14T19:07:28.889Z,15.73
2024-03-14T19:09:55.430Z,15.68
2024-03-14T19:12:22.321Z,15.63
2024-03-14T19:14:50.495Z,15.59
2024-03-14T19:17:20.858Z,15.53
2024-03-14T19:19:51.708Z,15.50
2024-03-14T19:22:18.863Z,15.46
2024-03-14T19:24:46.117Z,15.42
2024-03-14T19:27:13.693Z,15.38
2024-03-14T19:29:40.398Z,15.34
2024-03-14T19:32:07.234Z,15.30
2024-03-14T19:34:34.664Z,15.28
2024-03-14T19:37:05.098Z,15.28
2024-03-14T19:39:34.448Z,15.25
2024-03-14T19:42:02.318Z,15.24
2024-03-14T19:44:30.622Z,15.22
2024-03-14T19:46:58.618Z,15.20
2024-03-14T19:49:25.829Z,15.18
2024-03-14T19:51:52.646Z,15.15
2024-03-14T19:54:19.543Z,15.11
2024-03-14T19:56:48.671Z,15.06
2024-03-14T19:59:15.609Z,15.02
2024-03-14T20:01:42.345Z,14.96
2024-03-14T20:04:09.758Z,14.93
2024-03-14T20:06:36.627Z,14.89
2024-03-14T20:09:04.827Z,14.85
2024-03-14T20:11:31.555Z,14.83
2024-03-14T20:13:58.414Z,14.80
2024-03-14T20:16:25.017Z,14.77
2024-03-14T20:18:51.848Z,14.76
2024-03-14T20:21:18.654Z,14.72
2024-03-14T20:23:48.762Z,14.68
2024-03-14T20:26:16.657Z,14.66
2024-03-14T20:28:43.789Z,14.62
2024-03-14T20:31:10.510Z,14.59
2024-03-14T20:33:38.136Z,14.55
2024-03-14T20:36:57.216Z,14.51
2024-03-14T20:39:25.456Z,14.46
2024-03-14T20:41:52.096Z,14.42
2024-03-14T20:44:18.709Z,14.37
2024-03-14T20:46:45.817Z,14.31
2024-03-14T20:49:14.013Z,14.23
2024-03-14T20:51:40.849Z,14.14
2024-03-14T20:54:09.387Z,14.07
2024-03-14T20:56:43.460Z,14.00
2024-03-14T20:59:14.418Z,13.94
2024-03-14T21:01:40.881Z,13.90
2024-03-14T21:04:10.576Z,13.84
2024-03-14T21:06:38.434Z,13.79
2024-03-14T21:09:08.623Z,13.75
2024-03-14T21:11:35.567Z,13.69
2024-03-14T21:14:02.721Z,13.61
2024-03-14T21:16:30.257Z,13.55
2024-03-14T21:18:57.286Z,13.49
2024-03-14T21:21:23.810Z,13.43
2024-03-14T21:23:50.706Z,13.38
2024-03-14T21:26:17.215Z,13.35
2024-03-14T21:28:43.681Z,13.29
2024-03-14T21:31:10.233Z,13.25
2024-03-14T21:33:38.003Z,13.23
2024-03-14T21:36:06.118Z,13.22
2024-03-14T21:38:33.796Z,13.19
2024-03-14T21:41:00.352Z,13.16
2024-03-14T21:43:26.765Z,13.14
2024-03-14T21:45:54.211Z,13.10
2024-03-14T21:48:21.419Z,13.06
2024-03-14T21:50:48.244Z,13.01
2024-03-14T21:53:15.437Z,12.96
2024-03-14T21:55:42.394Z,12.92
2024-03-14T21:58:08.982Z,12.89
2024-03-14T22:00:35.578Z,12.86
2024-03-14T22:03:02.255Z,12.84
2024-03-14T22:05:31.374Z,12.82
2024-03-14T22:07:57.836Z,12.79
2024-03-14T22:10:24.589Z,12.78
2024-03-14T22:12:51.279Z,12.76
2024-03-14T22:15:18.953Z,12.73
2024-03-14T22:17:46.067Z,12.71
2024-03-14T22:20:19.987Z,12.68
2024-03-14T22:22:47.246Z,12.65
2024-03-14T22:25:14.621Z,12.63
2024-03-14T22:27:43.082Z,12.60
2024-03-14T22:30:11.040Z,12.58
2024-03-14T22:32:37.985Z,12.54
2024-03-14T22:35:05.626Z,12.51
2024-03-14T22:37:32.479Z,12.50
2024-03-14T22:39:58.982Z,12.47
2024-03-14T22:42:26.103Z,12.44
2024-03-14T22:44:53.398Z,12.42
2024-03-14T22:47:20.059Z,12.39
2024-03-14T22:49:46.538Z,12.37
2024-03-14T22:52:12.990Z,12.34
2024-03-14T22:54:39.757Z,12.32
2024-03-14T22:57:08.341Z,12.29
2024-03-14T22:59:36.468Z,12.26
2024-03-14T23:02:04.620Z,12.23
2024-03-14T23:04:33.587Z,12.22
2024-03-14T23:07:00.357Z,12.20
2024-03-14T23:09:27.672Z,12.18
2024-03-14T23:11:54.156Z,12.15
2024-03-14T23:14:20.694Z,12.11
2024-03-14T23:16:47.643Z,12.08
2024-03-14T23:19:14.094Z,12.06
2024-03-14T23:21:41.630Z,12.04
2024-03-14T23:24:08.859Z,12.02
2024-03-14T23:26:35.476Z,11.99
2024-03-14T23:29:05.500Z,11.97
2024-03-14T23:31:32.305Z,11.95
2024-03-14T23:33:59.933Z,11.91
2024-03-14T23:36:27.917Z,11.88
2024-03-14T23:38:55.102Z,11.85
2024-03-14T23:41:22.384Z,11.82
2024-03-14T23:43:52.966Z,11.79
2024-03-14T23:46:21.207Z,11.76
2024-03-14T23:48:48.285Z,11.73
2024-03-14T23:51:16.291Z,11.70
2024-03-14T23:53:43.355Z,11.67
2024-03-14T23:56:10.363Z,11.63
2024-03-14T23:58:37.114Z,11.59
